createdAt,value
2022-10-14T00:01:40.403Z,15.23
2022-10-14T00:04:07.606Z,17.17
2022-10-14T00:06:35.161Z,18.50
2022-10-14T00:09:04.622Z,19.63
2022-10-14T00:11:32.821Z,24.52
2022-10-14T00:14:01.735Z,23.55
2022-10-14T00:16:31.224Z,21.17
2022-10-14T00:18:58.932Z,21.13
2022-10-14T00:21:26.589Z,22.20
2022-10-14T00:23:53.777Z,19.80
2022-10-14T00:26:25.759Z,18.35
2022-10-14T00:28:53.085Z,22.35
2022-10-14T00:31:20.774Z,22.80
2022-10-14T00:33:48.354Z,23.05
2022-10-14T00:36:17.033Z,18.52
2022-10-14T00:38:45.689Z,15.57
2022-10-14T00:41:17.443Z,19.13
2022-10-14T00:43:56.005Z,16.63
2022-10-14T00:46:23.605Z,13.65
2022-10-14T00:48:51.456Z,15.00
2022-10-14T00:51:19.570Z,16.08
2022-10-14T00:53:47.151Z,19.08
2022-10-14T00:56:16.595Z,21.65
2022-10-14T00:58:45.549Z,20.15
2022-10-14T01:01:12.764Z,21.55
2022-10-14T01:03:41.035Z,21.83
2022-10-14T01:06:32.029Z,24.60
2022-10-14T01:09:19.688Z,22.60
2022-10-14T01:12:28.145Z,22.75
2022-10-14T01:15:05.092Z,21.38
2022-10-14T01:17:35.232Z,19.25
2022-10-14T01:20:08.566Z,19.75
2022-10-14T01:22:41.738Z,19.67
2022-10-14T01:25:08.816Z,19.67
2022-10-14T01:27:41.896Z,19.92
2022-10-14T01:30:10.548Z,20.23
2022-10-14T01:32:37.681Z,21.60
2022-10-14T01:35:23.556Z,21.92
2022-10-14T01:38:13.926Z,25.35
2022-10-14T01:40:51.039Z,25.88
2022-10-14T01:43:20.024Z,24.92
2022-10-14T01:45:48.480Z,26.38
2022-10-14T01:48:17.965Z,24.40
2022-10-14T01:50:46.677Z,22.52
2022-10-14T01:53:20.275Z,24.40
2022-10-14T01:55:48.116Z,24.77
2022-10-14T01:58:16.172Z,24.17
2022-10-14T02:00:43.714Z,23.75
2022-10-14T02:03:12.433Z,23.67
2022-10-14T02:05:58.500Z,23.02
2022-10-14T02:08:41.757Z,22.85
2022-10-14T02:11:08.992Z,19.67
2022-10-14T02:13:38.934Z,20.63
2022-10-14T02:16:29.129Z,17.98
2022-10-14T02:19:03.719Z,19.00
2022-10-14T02:21:34.108Z,19.42
2022-10-14T02:24:27.479Z,17.90
2022-10-14T02:26:56.486Z,16.70
2022-10-14T02:29:23.821Z,16.95
2022-10-14T02:31:51.753Z,18.40
2022-10-14T02:34:20.661Z,17.60
2022-10-14T02:36:48.532Z,17.35
2022-10-14T02:39:18.251Z,19.02
2022-10-14T02:41:45.772Z,18.52
2022-10-14T02:44:12.956Z,21.10
2022-10-14T02:46:41.264Z,19.35
2022-10-14T02:49:08.525Z,18.33
2022-10-14T02:51:35.617Z,20.80
2022-10-14T02:54:02.786Z,22.60
2022-10-14T02:56:30.015Z,21.52
2022-10-14T02:58:57.168Z,22.20
2022-10-14T03:01:24.310Z,23.08
2022-10-14T03:03:51.542Z,24.35
2022-10-14T03:06:18.772Z,23.85
2022-10-14T03:08:45.884Z,24.30
2022-10-14T03:11:13.088Z,24.08
2022-10-14T03:13:40.450Z,23.88
2022-10-14T03:16:07.673Z,25.88
2022-10-14T03:18:34.903Z,27.45
2022-10-14T03:21:02.049Z,26.00
2022-10-14T03:23:29.152Z,26.65
2022-10-14T03:25:56.326Z,24.80
2022-10-14T03:28:23.598Z,28.60
2022-10-14T03:30:50.793Z,29.13
2022-10-14T03:33:20.534Z,28.98
2022-10-14T03:35:47.860Z,30.88
2022-10-14T03:38:14.965Z,29.15
2022-10-14T03:40:42.134Z,30.13
2022-10-14T03:43:09.262Z,28.77
2022-10-14T03:45:36.394Z,30.35
2022-10-14T03:48:03.588Z,30.05
2022-10-14T03:50:30.880Z,30.10
2022-10-14T03:52:57.981Z,31.90
2022-10-14T03:55:25.837Z,29.77
2022-10-14T03:57:52.953Z,31.75
2022-10-14T04:00:20.195Z,28.55
2022-10-14T04:02:47.379Z,30.67
2022-10-14T04:05:14.562Z,28.77
2022-10-14T04:07:41.674Z,29.50
2022-10-14T04:10:09.585Z,31.35
2022-10-14T04:12:36.737Z,29.58
2022-10-14T04:15:03.908Z,29.95
2022-10-14T04:17:31.128Z,29.88
2022-10-14T04:19:58.224Z,29.50
2022-10-14T04:22:25.497Z,29.77
2022-10-14T04:24:52.677Z,30.90
2022-10-14T04:27:19.807Z,31.85
2022-10-14T04:29:46.910Z,31.08
2022-10-14T04:32:14.088Z,31.60
2022-10-14T04:34:41.260Z,32.03
2022-10-14T04:37:08.368Z,31.90
2022-10-14T04:39:35.623Z,31.60
2022-10-14T04:42:02.768Z,30.08
2022-10-14T04:44:29.896Z,31.35
2022-10-14T04:46:57.133Z,29.95
2022-10-14T04:49:24.278Z,31.15
2022-10-14T04:51:51.435Z,27.80
2022-10-14T04:54:18.698Z,28.23
2022-10-14T04:56:46.034Z,27.65
2022-10-14T04:59:13.783Z,27.55
2022-10-14T05:01:41.006Z,26.23
2022-10-14T05:04:08.110Z,26.08
2022-10-14T05:06:35.248Z,25.83
2022-10-14T05:09:02.505Z,25.55
2022-10-14T05:11:29.621Z,25.02
2022-10-14T05:13:56.729Z,25.00
2022-10-14T05:16:23.911Z,22.58
2022-10-14T05:18:51.020Z,24.17
2022-10-14T05:21:18.130Z,23.92
2022-10-14T05:23:45.446Z,25.50
2022-10-14T05:26:12.577Z,25.27
2022-10-14T05:28:39.856Z,24.67
2022-10-14T05:31:07.246Z,26.33
2022-10-14T05:33:34.693Z,27.73
2022-10-14T05:36:01.797Z,27.23
2022-10-14T05:38:32.106Z,27.67
2022-10-14T05:40:59.864Z,29.67
2022-10-14T05:43:32.170Z,29.08
2022-10-14T05:46:00.345Z,29.73
2022-10-14T05:48:27.479Z,29.75
2022-10-14T05:50:54.794Z,28.52
2022-10-14T05:53:22.037Z,30.33
2022-10-14T05:55:49.154Z,30.63
2022-10-14T05:58:16.301Z,30.38
2022-10-14T06:00:43.560Z,29.60
2022-10-14T06:03:13.178Z,29.98
2022-10-14T06:05:40.466Z,29.02
2022-10-14T06:08:07.683Z,27.95
2022-10-14T06:10:35.525Z,29.10
2022-10-14T06:13:02.942Z,27.65
2022-10-14T06:15:30.150Z,25.20
2022-10-14T06:17:57.282Z,24.92
2022-10-14T06:20:24.499Z,24.35
2022-10-14T06:22:51.746Z,22.63
2022-10-14T06:25:18.936Z,23.60
2022-10-14T06:27:46.081Z,22.88
2022-10-14T06:30:13.927Z,21.23
2022-10-14T06:32:41.048Z,21.08
2022-10-14T06:35:08.362Z,20.95
2022-10-14T06:37:35.665Z,19.75
2022-10-14T06:40:02.794Z,19.35
2022-10-14T06:42:29.920Z,18.52
2022-10-14T06:44:57.096Z,18.60
2022-10-14T06:47:24.189Z,19.63
2022-10-14T06:49:51.360Z,17.45
2022-10-14T06:52:18.545Z,17.45
2022-10-14T06:54:48.328Z,18.38
2022-10-14T06:57:15.882Z,16.55
2022-10-14T06:59:43.090Z,15.77
2022-10-14T07:02:11.017Z,15.80
2022-10-14T07:04:39.384Z,15.98
2022-10-14T07:07:07.582Z,15.93
2022-10-14T07:09:34.702Z,15.88
2022-10-14T07:12:01.867Z,13.88
2022-10-14T07:14:29.065Z,13.18
2022-10-14T07:16:56.212Z,13.55
2022-10-14T07:19:23.329Z,14.43
2022-10-14T07:21:50.524Z,13.07
2022-10-14T07:24:17.638Z,13.32
2022-10-14T07:26:44.814Z,14.00
2022-10-14T07:29:12.018Z,13.77
2022-10-14T07:31:39.281Z,12.93
2022-10-14T07:34:06.574Z,13.90
2022-10-14T07:36:33.737Z,13.02
2022-10-14T07:39:01.135Z,13.25
2022-10-14T07:41:28.600Z,12.77
2022-10-14T07:43:58.190Z,14.30
2022-10-14T07:46:29.809Z,13.30
2022-10-14T07:48:58.153Z,14.45
2022-10-14T07:51:25.710Z,14.45
2022-10-14T07:53:53.220Z,14.23
2022-10-14T07:56:20.786Z,14.20
2022-10-14T07:58:48.242Z,14.52
2022-10-14T08:01:16.073Z,14.38
2022-10-14T08:03:44.077Z,14.05
2022-10-14T08:06:11.825Z,13.75
2022-10-14T08:08:39.416Z,13.73
2022-10-14T08:11:11.763Z,12.77
2022-10-14T08:13:41.948Z,14.50
2022-10-14T08:16:19.727Z,13.57
2022-10-14T08:18:47.603Z,11.75
2022-10-14T08:21:15.257Z,12.43
2022-10-14T08:23:42.850Z,11.40
2022-10-14T08:26:42.227Z,11.95
2022-10-14T08:29:11.603Z,11.27
2022-10-14T08:31:38.817Z,11.10
2022-10-14T08:34:05.933Z,11.13
2022-10-14T08:36:33.246Z,10.73
2022-10-14T08:39:00.474Z,10.40
2022-10-14T08:41:42.876Z,10.10
2022-10-14T08:44:15.850Z,9.45
2022-10-14T08:46:56.340Z,9.98
2022-10-14T08:49:48.110Z,9.15
2022-10-14T08:52:18.213Z,9.25
2022-10-14T08:54:48.013Z,7.85
2022-10-14T08:57:17.898Z,8.57
2022-10-14T08:59:45.520Z,8.20
2022-10-14T09:02:22.122Z,8.15
2022-10-14T09:04:49.560Z,7.68
2022-10-14T09:07:18.853Z,8.10
2022-10-14T09:09:50.010Z,7.22
2022-10-14T09:14:46.859Z,6.50
2022-10-14T09:17:17.525Z,6.88
2022-10-14T09:20:05.272Z,7.78
2022-10-14T09:22:32.517Z,7.20
2022-10-14T09:25:01.112Z,6.57
2022-10-14T09:27:29.175Z,5.55
2022-10-14T09:30:02.953Z,5.43
2022-10-14T09:32:32.255Z,6.60
2022-10-14T09:35:00.025Z,7.38
2022-10-14T09:37:37.641Z,6.22
2022-10-14T09:40:04.744Z,7.50
2022-10-14T09:42:50.773Z,6.10
2022-10-14T09:45:19.560Z,6.97
2022-10-14T09:48:07.513Z,6.68
2022-10-14T09:50:40.792Z,6.30
2022-10-14T09:53:15.163Z,7.28
2022-10-14T09:55:56.389Z,6.40
2022-10-14T10:00:56.847Z,6.30
2022-10-14T10:03:29.227Z,5.38
2022-10-14T10:06:15.522Z,4.80
2022-10-14T10:08:55.533Z,4.70
2022-10-14T10:11:33.299Z,4.03
2022-10-14T10:14:11.891Z,4.50
2022-10-14T10:16:39.083Z,3.72
2022-10-14T10:19:21.581Z,3.45
2022-10-14T10:21:48.751Z,5.40
2022-10-14T10:24:20.367Z,4.85
2022-10-14T10:26:47.695Z,3.92
2022-10-14T10:29:24.691Z,4.50
2022-10-14T10:32:01.736Z,3.88
2022-10-14T10:35:07.490Z,4.30
2022-10-14T10:37:42.607Z,4.68
2022-10-14T10:40:18.620Z,3.78
2022-10-14T10:42:51.709Z,4.22
2022-10-14T10:45:35.618Z,3.88
2022-10-14T10:48:03.947Z,5.47
2022-10-14T10:50:37.653Z,4.75
2022-10-14T10:53:10.934Z,4.40
2022-10-14T10:56:01.116Z,4.30
2022-10-14T10:58:37.361Z,4.50
2022-10-14T11:01:24.420Z,4.60
2022-10-14T11:03:57.849Z,4.70
2022-10-14T11:06:49.503Z,4.82
2022-10-14T11:10:05.004Z,4.75
2022-10-14T11:12:52.353Z,4.90
2022-10-14T11:15:28.404Z,4.82
2022-10-14T11:18:01.324Z,4.78
2022-10-14T11:20:47.392Z,5.30
2022-10-14T11:23:28.104Z,5.53
2022-10-14T11:26:08.172Z,5.35
2022-10-14T11:28:47.955Z,5.60
2022-10-14T11:31:15.468Z,4.15
2022-10-14T11:33:52.958Z,4.93
2022-10-14T11:36:24.749Z,6.55
2022-10-14T11:39:10.765Z,4.32
2022-10-14T11:41:57.067Z,4.32
2022-10-14T11:47:19.989Z,4.68
2022-10-14T11:50:07.406Z,4.75
2022-10-14T11:52:38.824Z,4.72
2022-10-14T11:55:14.646Z,4.13
2022-10-14T11:57:51.086Z,4.60
2022-10-14T12:00:22.024Z,3.88
2022-10-14T12:03:09.885Z,4.07
2022-10-14T12:05:40.207Z,4.32
2022-10-14T12:08:27.007Z,5.17
2022-10-14T12:11:01.252Z,4.45
2022-10-14T12:13:48.028Z,4.75
2022-10-14T12:16:17.137Z,4.63
2022-10-14T12:18:45.466Z,4.13
2022-10-14T12:21:18.914Z,4.60
2022-10-14T12:23:59.472Z,4.53
2022-10-14T12:26:26.659Z,4.85
2022-10-14T12:28:55.447Z,4.40
2022-10-14T12:31:23.976Z,4.22
2022-10-14T12:34:09.698Z,4.53
2022-10-14T12:36:37.397Z,4.38
2022-10-14T12:39:19.997Z,4.03
2022-10-14T12:41:55.684Z,4.35
2022-10-14T12:44:24.049Z,4.00
2022-10-14T12:46:53.032Z,3.95
2022-10-14T12:49:25.081Z,3.58
2022-10-14T12:52:00.023Z,3.80
2022-10-14T12:54:27.760Z,4.25
2022-10-14T12:56:57.918Z,3.90
2022-10-14T12:59:28.722Z,3.85
2022-10-14T13:02:00.109Z,4.10
2022-10-14T13:04:28.600Z,3.55
2022-10-14T13:07:45.094Z,3.88
2022-10-14T13:10:27.959Z,3.10
2022-10-14T13:12:55.173Z,4.38
2022-10-14T13:15:48.719Z,3.80
2022-10-14T13:18:45.171Z,3.20
2022-10-14T13:21:27.270Z,3.60
2022-10-14T13:23:55.192Z,3.72
2022-10-14T13:26:31.377Z,3.65
2022-10-14T13:29:01.324Z,4.38
2022-10-14T13:31:40.981Z,4.10
2022-10-14T13:34:12.636Z,3.25
2022-10-14T13:36:50.206Z,3.92
2022-10-14T13:39:17.333Z,3.53
2022-10-14T13:41:45.294Z,4.00
2022-10-14T13:44:13.122Z,3.42
2022-10-14T13:46:43.093Z,3.80
2022-10-14T13:49:20.511Z,3.92
2022-10-14T13:51:56.319Z,3.75
2022-10-14T13:54:25.205Z,3.50
2022-10-14T13:57:38.658Z,3.35
2022-10-14T14:02:50.364Z,3.60
2022-10-14T14:05:22.706Z,3.42
2022-10-14T14:08:29.075Z,3.67
2022-10-14T14:10:51.510Z,3.85
2022-10-14T14:13:25.670Z,4.00
2022-10-14T14:15:54.182Z,4.47
2022-10-14T14:18:38.138Z,4.45
2022-10-14T14:21:16.176Z,4.53
2022-10-14T14:23:53.749Z,4.47
2022-10-14T14:26:21.573Z,4.47
2022-10-14T14:28:49.102Z,4.50
2022-10-14T14:31:17.981Z,6.90
2022-10-14T14:33:46.535Z,5.00
2022-10-14T14:36:27.394Z,4.50
2022-10-14T14:38:57.832Z,4.68
2022-10-14T14:41:26.667Z,5.07
2022-10-14T14:44:24.157Z,5.25
2022-10-14T14:46:45.029Z,5.20
2022-10-14T14:49:14.276Z,5.60
2022-10-14T14:51:41.604Z,5.32
2022-10-14T14:54:09.236Z,5.70
2022-10-14T14:56:41.473Z,5.18
2022-10-14T14:59:17.183Z,6.38
2022-10-14T15:01:44.407Z,7.05
2022-10-14T15:04:17.543Z,7.13
2022-10-14T15:07:11.645Z,8.10
2022-10-14T15:09:43.372Z,10.02
2022-10-14T15:12:18.065Z,9.68
2022-10-14T15:14:45.257Z,10.95
2022-10-14T15:17:31.164Z,9.63
2022-10-14T15:19:59.684Z,9.15
2022-10-14T15:22:36.799Z,9.15
2022-10-14T15:25:23.437Z,8.65
2022-10-14T15:27:54.874Z,8.45
2022-10-14T15:30:34.987Z,8.00
2022-10-14T15:33:04.085Z,8.75
2022-10-14T15:35:31.951Z,7.50
2022-10-14T15:37:59.154Z,7.22
2022-10-14T15:40:32.957Z,6.82
2022-10-14T15:43:00.157Z,7.43
2022-10-14T15:45:27.388Z,6.65
2022-10-14T15:50:29.137Z,6.85
2022-10-14T15:52:56.881Z,6.78
2022-10-14T15:55:25.893Z,7.45
2022-10-14T15:57:53.432Z,7.88
2022-10-14T16:00:21.663Z,8.82
2022-10-14T16:02:51.161Z,8.02
2022-10-14T16:05:20.742Z,8.57
2022-10-14T16:07:48.765Z,8.90
2022-10-14T16:10:17.035Z,7.80
2022-10-14T16:12:44.483Z,8.32
2022-10-14T16:15:17.712Z,8.18
2022-10-14T16:17:47.567Z,8.07
2022-10-14T16:20:17.417Z,7.53
2022-10-14T16:22:44.562Z,7.40
2022-10-14T16:25:29.860Z,7.93
2022-10-14T16:27:57.320Z,7.72
2022-10-14T16:30:24.445Z,7.82
2022-10-14T16:32:51.832Z,7.80
2022-10-14T16:35:18.973Z,7.85
2022-10-14T16:37:46.399Z,8.10
2022-10-14T16:40:13.670Z,8.75
2022-10-14T16:42:40.822Z,8.93
2022-10-14T16:45:08.219Z,9.10
2022-10-14T16:47:35.392Z,9.40
2022-10-14T16:50:02.607Z,9.52
2022-10-14T16:52:29.716Z,10.82
2022-10-14T16:54:56.977Z,10.07
2022-10-14T16:57:24.845Z,11.70
2022-10-14T16:59:51.989Z,11.48
2022-10-14T17:02:21.407Z,11.57
2022-10-14T17:04:49.720Z,9.93
2022-10-14T17:07:17.483Z,11.48
2022-10-14T17:09:44.815Z,9.75
2022-10-14T17:12:13.923Z,10.43
2022-10-14T17:14:41.532Z,9.23
2022-10-14T17:17:10.125Z,9.43
2022-10-14T17:19:39.156Z,8.98
2022-10-14T17:22:06.310Z,9.70
2022-10-14T17:24:33.525Z,10.02
2022-10-14T17:27:04.551Z,10.32
2022-10-14T17:29:32.214Z,11.80
2022-10-14T17:31:59.407Z,14.65
2022-10-14T17:34:26.530Z,14.82
2022-10-14T17:36:54.302Z,14.20
2022-10-14T17:39:27.543Z,13.38
2022-10-14T17:41:56.481Z,13.90
2022-10-14T17:44:23.809Z,12.02
2022-10-14T17:46:50.918Z,9.52
2022-10-14T17:49:18.061Z,9.70
2022-10-14T17:51:45.391Z,9.32
2022-10-14T17:54:12.761Z,9.73
2022-10-14T17:56:40.279Z,11.00
2022-10-14T17:59:08.633Z,9.50
2022-10-14T18:01:37.826Z,9.88
2022-10-14T18:04:17.884Z,9.52
2022-10-14T18:06:46.214Z,12.38
2022-10-14T18:09:13.719Z,12.23
2022-10-14T18:14:30.358Z,12.80
2022-10-14T18:16:59.524Z,12.75
2022-10-14T18:19:27.237Z,12.40
2022-10-14T18:21:54.466Z,10.57
2022-10-14T18:24:21.811Z,10.60
2022-10-14T18:26:52.261Z,9.70
2022-10-14T18:29:19.386Z,9.77
2022-10-14T18:31:46.600Z,9.82
2022-10-14T18:34:14.091Z,10.35
2022-10-14T18:36:41.280Z,9.52
2022-10-14T18:39:09.932Z,9.90
2022-10-14T18:41:37.514Z,9.90
2022-10-14T18:44:05.323Z,9.50
2022-10-14T18:46:36.675Z,9.20
2022-10-14T18:49:08.005Z,10.93
2022-10-14T18:51:37.014Z,9.50
2022-10-14T18:54:05.589Z,9.30
2022-10-14T18:56:34.431Z,10.15
2022-10-14T19:01:36.447Z,10.40
2022-10-14T19:04:05.385Z,8.95
2022-10-14T19:06:32.919Z,8.80
2022-10-14T19:09:01.715Z,8.40
2022-10-14T19:11:29.649Z,8.38
2022-10-14T19:13:57.714Z,8.30
2022-10-14T19:16:29.013Z,10.18
2022-10-14T19:21:30.529Z,9.98
2022-10-14T19:23:58.630Z,8.68
2022-10-14T19:26:27.448Z,8.82
2022-10-14T19:28:54.622Z,8.20
2022-10-14T19:31:23.159Z,7.05
2022-10-14T19:33:50.314Z,7.45
2022-10-14T19:36:18.369Z,8.25
2022-10-14T19:38:46.977Z,8.20
2022-10-14T19:41:14.277Z,7.78
2022-10-14T19:43:41.405Z,7.80
2022-10-14T19:46:09.740Z,8.88
2022-10-14T19:48:36.878Z,8.88
2022-10-14T19:51:07.164Z,10.02
2022-10-14T19:53:34.655Z,9.93
2022-10-14T19:56:09.151Z,9.27
2022-10-14T19:58:38.607Z,10.43
2022-10-14T20:01:08.189Z,10.63
2022-10-14T20:03:35.785Z,10.98
2022-10-14T20:06:03.542Z,10.85
2022-10-14T20:08:30.748Z,11.35
2022-10-14T20:10:57.857Z,10.75
2022-10-14T20:13:25.148Z,10.88
2022-10-14T20:15:59.514Z,11.00
2022-10-14T20:18:27.095Z,12.02
2022-10-14T20:20:54.349Z,12.18
2022-10-14T20:23:21.458Z,11.20
2022-10-14T20:25:48.730Z,11.27
2022-10-14T20:28:19.534Z,10.85
2022-10-14T20:30:47.452Z,11.13
2022-10-14T20:33:14.729Z,10.77
2022-10-14T20:35:41.845Z,10.30
2022-10-14T20:38:09.042Z,9.52
2022-10-14T20:40:36.288Z,9.23
2022-10-14T20:43:03.944Z,10.15
2022-10-14T20:45:31.085Z,9.25
2022-10-14T20:47:58.252Z,9.10
2022-10-14T20:50:25.373Z,9.77
2022-10-14T20:52:52.493Z,8.38
2022-10-14T20:55:19.763Z,8.13
2022-10-14T20:57:47.368Z,8.18
2022-10-14T21:00:14.743Z,9.07
2022-10-14T21:05:14.517Z,8.75
2022-10-14T21:07:41.937Z,7.82
2022-10-14T21:10:09.264Z,8.43
2022-10-14T21:12:36.460Z,8.20
2022-10-14T21:15:03.756Z,8.18
2022-10-14T21:17:30.884Z,8.60
2022-10-14T21:19:58.053Z,9.25
2022-10-14T21:22:25.612Z,9.45
2022-10-14T21:24:52.934Z,9.00
2022-10-14T21:27:20.195Z,8.23
2022-10-14T21:29:51.981Z,9.95
2022-10-14T21:32:19.098Z,8.63
2022-10-14T21:34:46.206Z,9.35
2022-10-14T21:37:15.602Z,10.38
2022-10-14T21:39:42.694Z,10.20
2022-10-14T21:42:09.983Z,9.25
2022-10-14T21:44:37.156Z,9.23
2022-10-14T21:47:04.298Z,10.57
2022-10-14T21:49:31.423Z,9.60
2022-10-14T21:51:58.586Z,9.30
2022-10-14T21:54:26.093Z,9.15
2022-10-14T21:56:53.245Z,9.73
2022-10-14T21:59:20.475Z,9.63
2022-10-14T22:01:47.622Z,9.55
2022-10-14T22:04:14.769Z,8.80
2022-10-14T22:06:41.949Z,8.85
2022-10-14T22:09:09.201Z,9.05
2022-10-14T22:11:37.796Z,8.25
2022-10-14T22:14:06.690Z,8.80
2022-10-14T22:16:34.087Z,8.52
2022-10-14T22:19:02.385Z,9.90
2022-10-14T22:21:30.647Z,9.98
2022-10-14T22:23:58.858Z,9.68
2022-10-14T22:26:26.618Z,9.15
2022-10-14T22:28:59.681Z,9.70
2022-10-14T22:31:27.473Z,9.35
2022-10-14T22:33:54.629Z,9.00
2022-10-14T22:36:24.075Z,9.25
2022-10-14T22:38:52.204Z,8.00
2022-10-14T22:41:19.524Z,8.68
2022-10-14T22:43:47.820Z,7.35
2022-10-14T22:46:16.284Z,8.95
2022-10-14T22:48:43.637Z,8.50
2022-10-14T22:51:12.330Z,8.93
2022-10-14T22:53:40.517Z,8.52
2022-10-14T22:56:08.888Z,10.25
2022-10-14T22:58:36.146Z,8.45
2022-10-14T23:01:13.783Z,7.93
2022-10-14T23:03:41.408Z,7.43
2022-10-14T23:06:09.750Z,8.25
2022-10-14T23:08:36.942Z,7.38
2022-10-14T23:11:04.765Z,7.43
2022-10-14T23:13:32.292Z,6.40
2022-10-14T23:16:00.257Z,6.57
2022-10-14T23:18:28.228Z,5.93
2022-10-14T23:20:55.501Z,6.78
2022-10-14T23:23:22.936Z,6.45
2022-10-14T23:25:50.145Z,6.57
2022-10-14T23:28:17.303Z,6.30
2022-10-14T23:30:44.444Z,6.55
2022-10-14T23:33:12.642Z,7.15
2022-10-14T23:35:39.838Z,6.45
2022-10-14T23:38:07.042Z,6.40
2022-10-14T23:40:34.397Z,6.80
2022-10-14T23:43:01.743Z,6.45
2022-10-14T23:45:28.919Z,5.97
2022-10-14T23:47:56.084Z,5.88
2022-10-14T23:50:23.191Z,6.95
2022-10-14T23:52:50.299Z,6.68
2022-10-14T23:55:21.215Z,6.25
2022-10-14T23:57:48.356Z,6.85
